createdAt,value
2024-01-06T00:00:08.576Z,85.45
2024-01-06T00:01:08.678Z,83.28
2024-01-06T00:02:08.553Z,82.71
2024-01-06T00:03:08.609Z,82.38
2024-01-06T00:04:08.668Z,81.52
2024-01-06T00:05:08.556Z,79.76
2024-01-06T00:06:08.682Z,79.11
2024-01-06T00:07:08.548Z,79.41
2024-01-06T00:08:08.513Z,78.22
2024-01-06T00:09:08.548Z,77.35
2024-01-06T00:10:08.527Z,76.44
2024-01-06T00:11:08.490Z,76.25
2024-01-06T00:12:08.515Z,75.75
2024-01-06T00:13:08.481Z,75.40
2024-01-06T00:14:08.484Z,75.01
2024-01-06T00:15:08.515Z,73.97
2024-01-06T00:16:08.456Z,74.98
2024-01-06T00:17:08.445Z,74.50
2024-01-06T00:18:08.609Z,73.55
2024-01-06T00:19:08.613Z,73.61
2024-01-06T00:20:08.653Z,74.22
2024-01-06T00:21:08.436Z,72.58
2024-01-06T00:22:08.389Z,72.15
2024-01-06T00:23:08.372Z,71.95
2024-01-06T00:24:08.400Z,72.25
2024-01-06T00:25:08.348Z,73.24
2024-01-06T00:26:08.333Z,73.03
2024-01-06T00:27:08.347Z,72.02
2024-01-06T00:28:08.325Z,72.07
2024-01-06T00:29:08.293Z,72.22
2024-01-06T00:30:08.324Z,72.12
2024-01-06T00:31:08.372Z,72.25
2024-01-06T00:32:08.241Z,72.15
2024-01-06T00:33:08.307Z,71.90
2024-01-06T00:34:08.236Z,72.03
2024-01-06T00:35:08.263Z,71.10
2024-01-06T00:36:08.200Z,71.79
2024-01-06T00:37:08.131Z,71.45
2024-01-06T00:38:08.128Z,71.11
2024-01-06T00:39:08.141Z,71.26
2024-01-06T00:40:08.099Z,68.81
2024-01-06T00:41:08.054Z,71.24
2024-01-06T00:42:08.100Z,71.02
2024-01-06T00:43:08.033Z,71.12
2024-01-06T00:44:07.994Z,71.16
2024-01-06T00:45:08.013Z,71.18
2024-01-06T00:46:07.953Z,71.20
2024-01-06T00:47:07.971Z,71.46
2024-01-06T00:48:08.005Z,70.45
2024-01-06T00:49:07.989Z,71.14
2024-01-06T00:50:07.899Z,71.38
2024-01-06T00:51:07.932Z,71.29
2024-01-06T00:52:07.878Z,71.19
2024-01-06T00:53:07.863Z,71.83
2024-01-06T00:54:07.894Z,70.31
2024-01-06T00:55:07.816Z,71.14
2024-01-06T00:56:07.806Z,71.15
2024-01-06T00:57:07.816Z,70.99
2024-01-06T00:58:07.793Z,71.01
2024-01-06T00:59:07.774Z,71.00
2024-01-06T01:00:07.805Z,71.18
2024-01-06T01:01:07.845Z,71.14
2024-01-06T01:02:07.715Z,71.42
2024-01-06T01:03:07.729Z,70.40
2024-01-06T01:04:07.786Z,70.48
2024-01-06T01:05:07.705Z,70.62
2024-01-06T01:06:07.641Z,70.85
2024-01-06T01:07:07.611Z,70.84
2024-01-06T01:08:07.600Z,70.33
2024-01-06T01:09:07.651Z,71.07
2024-01-06T01:10:07.561Z,71.12
2024-01-06T01:11:07.526Z,71.15
2024-01-06T01:12:07.614Z,71.21
2024-01-06T01:13:07.496Z,71.24
2024-01-06T01:14:07.510Z,72.07
2024-01-06T01:15:07.493Z,71.37
2024-01-06T01:16:07.437Z,71.60
2024-01-06T01:17:07.430Z,70.55
2024-01-06T01:18:07.665Z,70.43
2024-01-06T01:19:07.424Z,70.71
2024-01-06T01:20:07.385Z,71.02
2024-01-06T01:21:07.372Z,71.27
2024-01-06T01:22:07.349Z,70.50
2024-01-06T01:23:07.308Z,71.05
2024-01-06T01:24:07.340Z,70.52
2024-01-06T01:25:07.263Z,70.00
2024-01-06T01:26:07.239Z,70.50
2024-01-06T01:27:07.229Z,70.15
2024-01-06T01:28:07.212Z,69.47
2024-01-06T01:29:07.186Z,69.55
2024-01-06T01:30:07.297Z,69.52
2024-01-06T01:31:07.228Z,70.05
2024-01-06T01:32:07.400Z,69.71
2024-01-06T01:33:07.778Z,70.62
2024-01-06T01:34:07.242Z,71.20
2024-01-06T01:35:07.160Z,71.21
2024-01-06T01:36:07.149Z,71.26
2024-01-06T01:37:07.081Z,71.49
2024-01-06T01:38:07.722Z,70.75
2024-01-06T01:39:07.109Z,71.15
2024-01-06T01:40:07.047Z,71.23
2024-01-06T01:41:07.026Z,71.25
2024-01-06T01:42:07.027Z,71.46
2024-01-06T01:43:07.514Z,71.63
2024-01-06T01:44:06.978Z,71.46
2024-01-06T01:45:07.051Z,71.04
2024-01-06T01:46:06.951Z,70.71
2024-01-06T01:47:06.939Z,70.93
2024-01-06T01:48:07.221Z,70.67
2024-01-06T01:49:07.078Z,71.71
2024-01-06T01:50:06.928Z,71.01
2024-01-06T01:51:06.909Z,70.92
2024-01-06T01:52:06.871Z,70.97
2024-01-06T01:53:06.846Z,71.01
2024-01-06T01:54:06.894Z,71.08
2024-01-06T01:55:06.831Z,70.40
2024-01-06T01:56:06.799Z,71.51
2024-01-06T01:57:06.798Z,71.64
2024-01-06T01:58:06.785Z,71.44
2024-01-06T01:59:06.782Z,70.65
2024-01-06T02:00:06.814Z,71.37
2024-01-06T02:01:06.824Z,70.02
2024-01-06T02:02:06.740Z,68.83
2024-01-06T02:03:20.043Z,70.88
2024-01-06T02:04:06.750Z,71.01
2024-01-06T02:05:06.758Z,71.50
2024-01-06T02:06:06.742Z,71.90
2024-01-06T02:07:06.700Z,72.52
2024-01-06T02:14:06.511Z,71.15
2024-01-06T02:15:06.502Z,76.37
2024-01-06T02:16:06.466Z,85.66
2024-01-06T02:17:06.452Z,97.07
2024-01-06T02:18:06.563Z,109.09
2024-01-06T02:19:06.507Z,117.23
2024-01-06T02:20:06.404Z,112.16
2024-01-06T02:21:06.452Z,107.18
2024-01-06T02:22:06.373Z,103.21
2024-01-06T02:23:06.391Z,99.19
2024-01-06T02:24:06.361Z,96.73
2024-01-06T02:25:06.337Z,94.54
2024-01-06T02:26:06.319Z,91.71
2024-01-06T02:27:06.297Z,89.89
2024-01-06T02:28:06.279Z,87.98
2024-01-06T02:29:06.334Z,86.77
2024-01-06T02:30:06.282Z,85.11
2024-01-06T02:31:06.318Z,84.33
2024-01-06T02:32:06.199Z,84.35
2024-01-06T02:33:06.242Z,82.54
2024-01-06T02:34:06.206Z,82.55
2024-01-06T02:35:06.153Z,82.63
2024-01-06T02:36:06.120Z,82.42
2024-01-06T02:37:06.110Z,80.51
2024-01-06T02:38:06.110Z,80.31
2024-01-06T02:39:06.091Z,78.97
2024-01-06T02:40:06.088Z,79.18
2024-01-06T02:41:06.086Z,78.23
2024-01-06T02:42:06.074Z,77.90
2024-01-06T02:43:06.043Z,78.20
2024-01-06T02:44:06.035Z,76.78
2024-01-06T02:45:06.031Z,76.20
2024-01-06T02:46:06.001Z,75.73
2024-01-06T02:47:05.988Z,76.44
2024-01-06T02:48:06.081Z,76.02
2024-01-06T02:49:06.042Z,73.88
2024-01-06T02:50:05.942Z,74.84
2024-01-06T02:51:05.908Z,74.71
2024-01-06T02:52:05.904Z,74.13
2024-01-06T02:53:05.899Z,73.73
2024-01-06T02:54:05.878Z,73.91
2024-01-06T02:55:05.863Z,73.24
2024-01-06T02:56:05.831Z,73.03
2024-01-06T02:57:05.817Z,73.35
2024-01-06T02:58:05.812Z,73.10
2024-01-06T02:59:05.780Z,73.25
2024-01-06T03:00:05.749Z,72.44
2024-01-06T03:01:06.034Z,72.36
2024-01-06T03:02:05.739Z,72.01
2024-01-06T03:03:05.814Z,72.38
2024-01-06T03:04:05.960Z,72.19
2024-01-06T03:05:05.742Z,72.08
2024-01-06T03:06:05.682Z,71.69
2024-01-06T03:07:05.663Z,71.40
2024-01-06T03:08:05.663Z,71.06
2024-01-06T03:09:05.645Z,71.93
2024-01-06T03:10:05.628Z,71.45
2024-01-06T03:11:05.602Z,71.84
2024-01-06T03:12:05.605Z,69.85
2024-01-06T03:13:05.749Z,71.68
2024-01-06T03:14:05.584Z,70.91
2024-01-06T03:15:05.566Z,70.28
2024-01-06T03:16:05.540Z,70.89
2024-01-06T03:17:05.525Z,70.96
2024-01-06T03:18:05.573Z,71.14
2024-01-06T03:19:05.592Z,71.00
2024-01-06T03:20:05.458Z,71.39
2024-01-06T03:21:05.478Z,71.33
2024-01-06T03:22:05.456Z,70.80
2024-01-06T03:23:05.432Z,71.58
2024-01-06T03:24:05.426Z,71.80
2024-01-06T03:25:05.409Z,71.63
2024-01-06T03:26:05.387Z,71.67
2024-01-06T03:27:05.370Z,71.84
2024-01-06T03:28:05.364Z,71.51
2024-01-06T03:29:05.356Z,71.00
2024-01-06T03:30:05.355Z,71.69
2024-01-06T03:31:05.384Z,71.62
2024-01-06T03:32:05.320Z,70.75
2024-01-06T03:33:05.686Z,71.47
2024-01-06T03:34:05.388Z,71.54
2024-01-06T03:35:05.277Z,71.61
2024-01-06T03:36:05.275Z,71.55
2024-01-06T03:37:05.242Z,70.69
2024-01-06T03:38:05.241Z,71.41
2024-01-06T03:39:05.214Z,71.59
2024-01-06T03:40:05.207Z,71.14
2024-01-06T03:41:05.184Z,71.17
2024-01-06T03:42:05.177Z,71.27
2024-01-06T03:43:05.198Z,71.31
2024-01-06T03:44:05.141Z,70.98
2024-01-06T03:45:05.122Z,71.38
2024-01-06T03:46:05.108Z,71.53
2024-01-06T03:47:05.087Z,71.04
2024-01-06T03:48:05.212Z,71.19
2024-01-06T03:49:05.197Z,70.90
2024-01-06T03:50:05.042Z,70.90
2024-01-06T03:51:05.081Z,70.98
2024-01-06T03:52:05.048Z,71.14
2024-01-06T03:53:04.988Z,71.38
2024-01-06T03:54:04.964Z,70.94
2024-01-06T03:55:04.960Z,71.25
2024-01-06T03:56:04.935Z,71.14
2024-01-06T03:57:04.926Z,71.14
2024-01-06T03:58:04.931Z,72.60
2024-01-06T03:59:04.904Z,71.48
2024-01-06T04:00:04.895Z,72.09
2024-01-06T04:01:05.018Z,71.06
2024-01-06T04:02:04.846Z,70.99
2024-01-06T04:03:04.871Z,71.65
2024-01-06T04:04:05.013Z,70.29
2024-01-06T04:05:04.812Z,70.42
2024-01-06T04:06:04.828Z,69.66
2024-01-06T04:07:04.776Z,70.71
2024-01-06T04:09:04.735Z,70.09
2024-01-06T04:10:04.747Z,71.17
2024-01-06T04:11:04.691Z,72.95
2024-01-06T04:12:04.716Z,75.12
2024-01-06T04:20:25.431Z,70.36
2024-01-06T04:21:04.398Z,71.80
2024-01-06T04:22:04.386Z,80.27
2024-01-06T04:23:17.575Z,92.80
2024-01-06T04:24:04.353Z,71.85
2024-01-06T04:25:04.328Z,78.58
2024-01-06T04:26:04.305Z,88.39
2024-01-06T04:27:04.283Z,100.57
2024-01-06T04:28:04.312Z,113.56
2024-01-06T04:29:04.266Z,113.73
2024-01-06T04:30:04.313Z,108.02
2024-01-06T04:31:04.505Z,104.39
2024-01-06T04:32:04.204Z,101.42
2024-01-06T04:33:04.315Z,99.23
2024-01-06T04:34:04.368Z,96.32
2024-01-06T04:35:04.170Z,93.62
2024-01-06T04:36:04.141Z,92.27
2024-01-06T04:37:04.105Z,89.63
2024-01-06T04:38:04.109Z,88.69
2024-01-06T04:39:04.089Z,87.71
2024-01-06T04:40:04.111Z,85.88
2024-01-06T04:41:04.026Z,84.47
2024-01-06T04:42:04.017Z,83.54
2024-01-06T04:43:03.980Z,82.47
2024-01-06T04:44:11.289Z,50.00
2024-01-06T04:45:11.358Z,50.00
2024-01-06T04:46:11.336Z,50.00
2024-01-06T04:47:11.318Z,50.00
2024-01-06T04:48:11.572Z,50.00
2024-01-06T04:49:11.664Z,50.00
2024-01-06T04:50:11.404Z,50.10
2024-01-06T04:51:11.575Z,50.59
2024-01-06T04:52:11.415Z,50.66
2024-01-06T04:53:11.461Z,51.21
2024-01-06T04:54:11.499Z,50.03
2024-01-06T04:55:11.535Z,50.69
2024-01-06T04:56:11.607Z,50.00
2024-01-06T04:57:11.689Z,51.02
2024-01-06T04:58:11.764Z,50.94
2024-01-06T04:59:11.851Z,50.44
2024-01-06T05:00:11.986Z,50.12
2024-01-06T05:01:12.022Z,50.15
2024-01-06T05:02:11.970Z,50.12
2024-01-06T05:03:12.070Z,49.21
2024-01-06T05:04:12.069Z,49.15
2024-01-06T05:05:12.071Z,49.56
2024-01-06T05:06:12.092Z,50.00
2024-01-06T05:07:12.190Z,50.38
2024-01-06T05:08:12.141Z,50.45
2024-01-06T05:09:12.284Z,50.89
2024-01-06T05:10:12.299Z,50.95
2024-01-06T05:11:12.382Z,50.91
2024-01-06T05:12:12.508Z,50.99
2024-01-06T05:13:12.572Z,51.15
2024-01-06T05:14:12.673Z,50.00
2024-01-06T05:15:12.778Z,50.18
2024-01-06T05:16:12.841Z,50.00
2024-01-06T05:17:12.947Z,50.77
2024-01-06T05:18:13.125Z,51.79
2024-01-06T05:19:13.433Z,51.18
2024-01-06T05:20:13.344Z,50.66
2024-01-06T05:21:13.375Z,50.69
2024-01-06T05:22:13.342Z,50.75
2024-01-06T05:23:13.403Z,51.21
2024-01-06T05:24:13.421Z,50.75
2024-01-06T05:25:13.378Z,50.89
2024-01-06T05:26:13.406Z,50.84
2024-01-06T05:27:14.278Z,51.19
2024-01-06T05:28:13.472Z,50.95
2024-01-06T05:29:13.447Z,51.10
2024-01-06T05:30:13.646Z,50.96
2024-01-06T05:31:13.652Z,51.26
2024-01-06T05:32:13.553Z,50.56
2024-01-06T05:33:14.799Z,50.60
2024-01-06T05:34:13.682Z,50.79
2024-01-06T05:35:13.684Z,50.59
2024-01-06T05:36:13.691Z,50.37
2024-01-06T05:37:13.690Z,50.50
2024-01-06T05:38:13.733Z,50.71
2024-01-06T05:39:13.819Z,50.76
2024-01-06T05:40:13.781Z,50.90
2024-01-06T05:41:13.801Z,50.17
2024-01-06T05:42:13.841Z,50.97
2024-01-06T05:43:13.843Z,50.76
2024-01-06T05:44:13.886Z,50.82
2024-01-06T05:45:13.989Z,50.40
2024-01-06T05:46:13.919Z,50.22
2024-01-06T05:47:13.989Z,50.75
2024-01-06T05:48:14.130Z,50.81
2024-01-06T05:49:14.760Z,50.54
2024-01-06T05:50:14.045Z,50.93
2024-01-06T05:51:14.082Z,50.71
2024-01-06T05:52:14.075Z,50.57
2024-01-06T05:53:14.109Z,50.63
2024-01-06T05:54:14.172Z,50.68
2024-01-06T05:55:14.210Z,50.95
2024-01-06T05:56:14.285Z,50.58
2024-01-06T05:57:14.418Z,50.27
2024-01-06T05:58:14.493Z,50.34
2024-01-06T05:59:14.945Z,50.26
2024-01-06T06:00:14.647Z,50.32
2024-01-06T06:01:14.680Z,50.40
2024-01-06T06:02:14.675Z,50.49
2024-01-06T06:03:14.864Z,50.61
2024-01-06T06:04:14.933Z,50.72
2024-01-06T06:05:14.964Z,50.67
2024-01-06T06:06:15.003Z,50.70
2024-01-06T06:07:15.026Z,50.73
2024-01-06T06:08:15.047Z,50.95
2024-01-06T06:09:15.143Z,50.92
2024-01-06T06:10:15.195Z,50.97
2024-01-06T06:11:15.124Z,51.71
2024-01-06T06:12:15.206Z,51.14
2024-01-06T06:13:15.180Z,50.09
2024-01-06T06:14:15.604Z,50.61
2024-01-06T06:15:15.375Z,52.06
2024-01-06T06:16:15.434Z,50.59
2024-01-06T06:17:15.535Z,50.29
2024-01-06T06:18:15.740Z,51.16
2024-01-06T06:21:25.851Z,50.60
2024-01-06T06:22:15.783Z,51.51
2024-01-06T06:23:15.787Z,54.56
2024-01-06T06:28:15.898Z,50.74
2024-01-06T06:29:26.456Z,55.55
2024-01-06T06:30:16.100Z,52.01
2024-01-06T06:31:16.115Z,58.01
2024-01-06T06:32:15.994Z,66.69
2024-01-06T06:33:16.164Z,77.09
2024-01-06T06:34:16.282Z,87.55
2024-01-06T06:35:16.058Z,87.85
2024-01-06T06:36:16.115Z,85.05
2024-01-06T06:37:16.117Z,81.13
2024-01-06T06:38:16.150Z,77.40
2024-01-06T06:39:16.263Z,75.12
2024-01-06T06:40:16.194Z,72.38
2024-01-06T06:41:16.225Z,72.39
2024-01-06T06:42:16.307Z,70.47
2024-01-06T06:43:19.252Z,68.07
2024-01-06T06:44:16.304Z,68.89
2024-01-06T06:45:16.397Z,67.20
2024-01-06T06:46:16.359Z,65.13
2024-01-06T06:47:16.380Z,64.17
2024-01-06T06:48:16.525Z,62.88
2024-01-06T06:49:16.532Z,61.57
2024-01-06T06:50:16.495Z,60.89
2024-01-06T06:51:16.538Z,60.04
2024-01-06T06:52:16.584Z,59.19
2024-01-06T06:53:16.677Z,59.41
2024-01-06T06:54:16.802Z,57.83
2024-01-06T06:55:16.801Z,57.87
2024-01-06T06:56:16.837Z,58.01
2024-01-06T06:57:16.866Z,58.00
2024-01-06T06:58:16.883Z,57.86
2024-01-06T06:59:16.909Z,57.88
2024-01-06T07:00:16.963Z,57.03
2024-01-06T07:01:17.133Z,56.21
2024-01-06T07:02:16.997Z,56.63
2024-01-06T07:03:17.159Z,56.49
2024-01-06T07:04:17.095Z,56.87
2024-01-06T07:05:17.115Z,55.98
2024-01-06T07:06:17.182Z,55.10
2024-01-06T07:07:17.249Z,54.76
2024-01-06T07:08:17.328Z,54.53
2024-01-06T07:09:19.125Z,54.61
2024-01-06T07:10:17.468Z,54.62
2024-01-06T07:11:17.475Z,54.63
2024-01-06T07:12:17.517Z,54.24
2024-01-06T07:13:17.532Z,54.86
2024-01-06T07:14:17.553Z,54.23
2024-01-06T07:15:17.628Z,53.85
2024-01-06T07:16:19.511Z,53.52
2024-01-06T07:17:17.630Z,53.23
2024-01-06T07:18:17.897Z,54.28
2024-01-06T07:19:17.990Z,53.25
2024-01-06T07:20:17.934Z,53.47
2024-01-06T07:21:18.079Z,52.50
2024-01-06T07:22:18.131Z,52.09
2024-01-06T07:23:18.228Z,52.54
2024-01-06T07:24:18.320Z,51.73
2024-01-06T07:25:18.417Z,52.77
2024-01-06T07:26:18.511Z,51.46
2024-01-06T07:27:18.620Z,51.74
2024-01-06T07:28:18.650Z,51.78
2024-01-06T07:29:18.700Z,51.99
2024-01-06T07:30:18.759Z,51.90
2024-01-06T07:31:18.902Z,52.16
2024-01-06T07:32:18.727Z,52.39
2024-01-06T07:33:18.824Z,51.97
2024-01-06T07:34:18.851Z,51.51
2024-01-06T07:35:18.814Z,51.56
2024-01-06T07:36:18.929Z,51.61
2024-01-06T07:37:18.889Z,51.61
2024-01-06T07:38:18.898Z,51.99
2024-01-06T07:39:18.925Z,51.44
2024-01-06T07:40:18.942Z,51.96
2024-01-06T07:41:18.970Z,51.26
2024-01-06T07:42:19.023Z,51.33
2024-01-06T07:43:19.076Z,52.36
2024-01-06T07:44:19.180Z,51.09
2024-01-06T07:45:19.385Z,51.17
2024-01-06T07:46:20.740Z,51.65
2024-01-06T07:47:19.449Z,51.56
2024-01-06T07:48:19.689Z,51.01
2024-01-06T07:49:19.763Z,50.93
2024-01-06T07:50:19.756Z,51.31
2024-01-06T07:51:19.848Z,51.19
2024-01-06T07:52:19.934Z,51.23
2024-01-06T07:53:20.004Z,51.14
2024-01-06T07:54:20.138Z,51.62
2024-01-06T07:55:20.213Z,50.88
2024-01-06T07:56:20.232Z,50.90
2024-01-06T07:57:20.291Z,50.94
2024-01-06T07:58:20.275Z,50.99
2024-01-06T07:59:20.317Z,51.23
2024-01-06T08:00:20.396Z,51.62
2024-01-06T08:01:20.436Z,51.31
2024-01-06T08:02:20.395Z,52.50
2024-01-06T08:03:20.489Z,51.66
2024-01-06T08:04:20.556Z,51.93
2024-01-06T08:05:20.679Z,52.04
2024-01-06T08:06:20.675Z,51.17
2024-01-06T08:07:20.661Z,51.20
2024-01-06T08:08:20.647Z,51.31
2024-01-06T08:09:20.696Z,51.24
2024-01-06T08:10:20.719Z,51.35
2024-01-06T08:11:20.760Z,51.25
2024-01-06T08:12:20.839Z,51.45
2024-01-06T08:13:20.821Z,51.58
2024-01-06T08:14:20.823Z,51.97
2024-01-06T08:15:20.866Z,52.57
2024-01-06T08:16:20.878Z,52.13
2024-01-06T08:17:20.901Z,52.16
2024-01-06T08:18:21.168Z,52.17
2024-01-06T08:19:21.015Z,51.42
2024-01-06T08:20:20.980Z,52.38
2024-01-06T08:21:21.046Z,51.06
2024-01-06T08:22:21.054Z,51.80
2024-01-06T08:23:21.066Z,50.07
2024-01-06T08:24:21.188Z,50.56
2024-01-06T08:25:21.185Z,50.94
2024-01-06T08:26:21.273Z,51.05
2024-01-06T08:27:21.331Z,51.08
2024-01-06T08:28:21.340Z,50.99
2024-01-06T08:29:21.350Z,51.10
2024-01-06T08:30:21.498Z,51.18
2024-01-06T08:31:21.496Z,51.58
2024-01-06T08:32:21.441Z,51.26
2024-01-06T08:33:21.653Z,51.27
2024-01-06T08:34:21.561Z,50.59
2024-01-06T08:35:21.519Z,51.59
2024-01-06T08:36:21.629Z,51.15
2024-01-06T08:37:21.656Z,50.51
2024-01-06T08:38:21.685Z,50.55
2024-01-06T08:39:21.730Z,50.67
2024-01-06T08:40:21.737Z,50.60
2024-01-06T08:41:21.762Z,50.80
2024-01-06T08:42:21.805Z,51.00
2024-01-06T08:43:21.824Z,51.14
2024-01-06T08:44:21.834Z,50.23
2024-01-06T08:45:21.859Z,51.42
2024-01-06T08:46:21.884Z,51.25
2024-01-06T08:47:21.902Z,51.03
2024-01-06T08:48:22.020Z,50.82
2024-01-06T08:49:22.118Z,50.96
2024-01-06T08:50:22.158Z,50.47
2024-01-06T08:51:22.333Z,50.21
2024-01-06T08:52:22.315Z,51.18
2024-01-06T08:53:22.412Z,51.13
2024-01-06T08:54:22.583Z,51.18
2024-01-06T08:55:22.477Z,51.22
2024-01-06T08:56:22.488Z,50.91
2024-01-06T08:57:22.528Z,51.40
2024-01-06T08:58:22.542Z,51.46
2024-01-06T08:59:22.609Z,51.44
2024-01-06T09:00:22.641Z,51.69
2024-01-06T09:01:22.741Z,51.56
2024-01-06T09:02:22.721Z,51.76
2024-01-06T09:03:22.907Z,50.92
2024-01-06T09:04:22.969Z,52.54
2024-01-06T09:05:23.081Z,51.40
2024-01-06T09:06:23.104Z,52.07
2024-01-06T09:07:23.174Z,51.02
2024-01-06T09:08:23.245Z,51.76
2024-01-06T09:09:23.399Z,52.49
2024-01-06T09:10:23.480Z,51.91
2024-01-06T09:11:23.508Z,51.85
2024-01-06T09:12:23.651Z,51.62
2024-01-06T09:13:23.696Z,52.11
2024-01-06T09:14:24.306Z,51.84
2024-01-06T09:15:23.905Z,51.54
2024-01-06T09:16:23.958Z,51.75
2024-01-06T09:19:06.518Z,50.00
2024-01-06T09:19:45.069Z,50.00
2024-01-06T09:20:44.887Z,50.00
2024-01-06T09:21:44.932Z,50.00
2024-01-06T09:22:44.926Z,50.00
2024-01-06T09:23:48.956Z,50.00
2024-01-06T09:24:45.067Z,50.00
2024-01-06T09:25:45.013Z,50.00
2024-01-06T09:26:45.000Z,50.00
2024-01-06T09:27:45.110Z,50.00
2024-01-06T09:28:45.066Z,50.00
2024-01-06T09:29:45.080Z,50.16
2024-01-06T09:30:45.129Z,50.00
2024-01-06T09:31:45.193Z,50.00
2024-01-06T09:32:45.131Z,50.14
2024-01-06T09:33:45.201Z,49.75
2024-01-06T09:34:45.316Z,49.28
2024-01-06T09:35:45.211Z,47.47
2024-01-06T09:36:45.269Z,47.00
2024-01-06T09:37:45.243Z,46.32
2024-01-06T09:38:45.300Z,51.32
2024-01-06T09:39:45.350Z,51.26
2024-01-06T09:40:45.316Z,50.85
2024-01-06T09:41:45.406Z,51.55
2024-01-06T09:42:45.506Z,51.70
2024-01-06T09:43:45.555Z,51.40
2024-01-06T09:44:45.645Z,52.40
2024-01-06T09:45:45.736Z,51.20
2024-01-06T09:46:45.822Z,51.98
2024-01-06T09:47:45.924Z,52.01
2024-01-06T09:48:45.997Z,51.09
2024-01-06T09:49:45.923Z,50.65
2024-01-06T09:50:46.046Z,50.77
2024-01-06T09:51:45.936Z,49.80
2024-01-06T09:52:45.958Z,50.67
2024-01-06T09:53:45.984Z,50.50
2024-01-06T09:54:46.053Z,51.63
2024-01-06T09:55:46.115Z,52.29
2024-01-06T09:56:46.145Z,51.17
2024-01-06T09:57:46.215Z,51.20
2024-01-06T09:58:46.227Z,51.26
2024-01-06T09:59:46.212Z,51.27
2024-01-06T10:00:46.335Z,51.28
2024-01-06T10:01:46.343Z,51.44
2024-01-06T10:02:46.279Z,51.60
2024-01-06T10:03:46.374Z,51.53
2024-01-06T10:04:46.475Z,51.20
2024-01-06T10:05:46.397Z,51.34
2024-01-06T10:06:46.379Z,51.22
2024-01-06T10:07:46.387Z,51.86
2024-01-06T10:08:46.470Z,51.65
2024-01-06T10:09:46.536Z,51.19
2024-01-06T10:10:46.520Z,51.21
2024-01-06T10:11:46.539Z,51.06
2024-01-06T10:12:46.609Z,51.10
2024-01-06T10:13:46.574Z,50.05
2024-01-06T10:14:46.623Z,51.20
2024-01-06T10:15:46.695Z,51.20
2024-01-06T10:16:46.654Z,51.18
2024-01-06T10:17:46.731Z,50.57
2024-01-06T10:18:49.998Z,50.43
2024-01-06T10:19:47.829Z,51.25
2024-01-06T10:20:46.748Z,50.66
2024-01-06T10:21:46.824Z,49.14
2024-01-06T10:22:46.801Z,49.67
2024-01-06T10:23:46.950Z,50.52
2024-01-06T10:24:46.913Z,50.70
2024-01-06T10:25:46.902Z,51.83
2024-01-06T10:26:46.928Z,51.94
2024-01-06T10:27:46.984Z,51.43
2024-01-06T10:28:47.013Z,52.16
2024-01-06T10:29:47.034Z,52.21
2024-01-06T10:30:47.118Z,52.25
2024-01-06T10:31:49.101Z,52.26
2024-01-06T10:32:47.190Z,52.19
2024-01-06T10:33:47.315Z,52.26
2024-01-06T10:34:47.169Z,52.55
2024-01-06T10:35:47.189Z,52.31
2024-01-06T10:36:47.289Z,52.31
2024-01-06T10:37:47.252Z,52.33
2024-01-06T10:38:47.272Z,52.72
2024-01-06T10:39:47.301Z,53.35
2024-01-06T10:40:47.314Z,52.27
2024-01-06T10:41:47.338Z,52.60
2024-01-06T10:42:47.423Z,53.10
2024-01-06T10:43:47.667Z,53.81
2024-01-06T10:44:47.809Z,54.19
2024-01-06T10:45:47.517Z,51.21
2024-01-06T10:46:47.440Z,53.12
2024-01-06T10:47:47.473Z,53.18
2024-01-06T10:48:47.979Z,53.24
2024-01-06T10:49:47.584Z,53.09
2024-01-06T10:50:47.504Z,53.55
2024-01-06T10:51:47.585Z,53.20
2024-01-06T10:52:47.687Z,53.37
2024-01-06T10:53:47.573Z,53.14
2024-01-06T10:54:47.614Z,51.18
2024-01-06T10:55:47.618Z,51.27
2024-01-06T10:56:47.650Z,51.55
2024-01-06T10:57:47.707Z,51.62
2024-01-06T10:58:47.685Z,51.27
2024-01-06T10:59:47.703Z,52.28
2024-01-06T11:00:47.795Z,53.91
2024-01-06T11:01:47.826Z,52.68
2024-01-06T11:02:47.775Z,51.60
2024-01-06T11:03:47.868Z,53.44
2024-01-06T11:04:47.933Z,52.97
2024-01-06T11:05:47.989Z,52.47
2024-01-06T11:06:48.075Z,52.62
2024-01-06T11:07:48.106Z,53.91
2024-01-06T11:08:48.189Z,54.67
2024-01-06T11:09:48.295Z,52.44
2024-01-06T11:10:48.346Z,50.96
2024-01-06T11:11:48.441Z,52.49
2024-01-06T11:12:48.547Z,51.37
2024-01-06T11:13:48.596Z,52.47
2024-01-06T11:14:48.682Z,53.34
2024-01-06T11:15:48.799Z,52.97
2024-01-06T11:16:48.837Z,53.55
2024-01-06T11:17:48.987Z,51.75
2024-01-06T11:18:49.099Z,52.06
2024-01-06T11:19:49.409Z,53.79
2024-01-06T11:20:49.160Z,53.06
2024-01-06T11:21:49.259Z,52.49
2024-01-06T11:22:49.346Z,53.76
2024-01-06T11:23:49.425Z,53.20
2024-01-06T11:24:49.560Z,53.38
2024-01-06T11:25:49.497Z,53.43
2024-01-06T11:26:49.521Z,52.00
2024-01-06T11:27:49.612Z,53.64
2024-01-06T11:28:49.585Z,53.56
2024-01-06T11:29:49.575Z,53.35
2024-01-06T11:30:49.689Z,54.56
2024-01-06T11:31:49.674Z,53.41
2024-01-06T11:32:49.709Z,53.24
2024-01-06T11:33:49.726Z,53.58
2024-01-06T11:34:49.838Z,53.62
2024-01-06T11:35:49.730Z,51.64
2024-01-06T11:36:49.847Z,53.72
2024-01-06T11:37:49.746Z,53.87
2024-01-06T11:38:49.782Z,53.88
2024-01-06T11:39:49.820Z,54.24
2024-01-06T11:40:49.818Z,54.29
2024-01-06T11:41:49.851Z,54.35
2024-01-06T11:42:49.927Z,54.33
2024-01-06T11:43:49.892Z,54.03
2024-01-06T11:44:49.934Z,52.57
2024-01-06T11:45:49.959Z,55.03
2024-01-06T11:46:49.992Z,52.67
2024-01-06T11:47:50.155Z,53.72
2024-01-06T11:48:50.173Z,53.90
2024-01-06T11:49:50.134Z,52.83
2024-01-06T11:50:50.197Z,53.77
2024-01-06T11:51:50.365Z,54.66
2024-01-06T11:52:50.359Z,53.10
2024-01-06T11:53:50.476Z,51.33
2024-01-06T11:54:50.608Z,54.00
2024-01-06T11:55:50.603Z,51.14
2024-01-06T11:56:50.718Z,53.63
2024-01-06T11:57:50.797Z,53.33
2024-01-06T11:58:50.865Z,51.36
2024-01-06T11:59:50.938Z,53.85
2024-01-06T12:00:51.036Z,55.25
2024-01-06T12:01:51.130Z,55.23
2024-01-06T12:02:51.206Z,53.24
2024-01-06T12:03:51.286Z,53.17
2024-01-06T12:04:51.377Z,52.58
2024-01-06T12:05:51.440Z,52.51
2024-01-06T12:06:51.576Z,52.56
2024-01-06T12:07:51.464Z,52.62
2024-01-06T12:08:51.469Z,53.09
2024-01-06T12:09:51.570Z,53.13
2024-01-06T12:10:51.525Z,54.43
2024-01-06T12:11:51.539Z,55.05
2024-01-06T12:12:51.642Z,55.64
2024-01-06T12:13:51.560Z,52.48
2024-01-06T12:14:51.582Z,54.53
2024-01-06T12:15:51.628Z,54.61
2024-01-06T12:16:51.716Z,54.19
2024-01-06T12:17:51.915Z,54.88
2024-01-06T12:18:51.939Z,56.11
2024-01-06T12:19:51.920Z,53.46
2024-01-06T12:20:51.926Z,54.63
2024-01-06T12:21:52.008Z,53.68
2024-01-06T12:22:51.970Z,55.81
2024-01-06T12:23:52.017Z,56.52
2024-01-06T12:24:52.151Z,54.82
2024-01-06T12:25:52.042Z,53.89
2024-01-06T12:26:52.043Z,54.69
2024-01-06T12:27:52.074Z,54.66
2024-01-06T12:28:52.149Z,54.55
2024-01-06T12:29:52.223Z,54.96
2024-01-06T12:30:52.392Z,53.41
2024-01-06T12:31:52.519Z,54.62
2024-01-06T12:32:52.512Z,53.19
2024-01-06T12:33:52.620Z,54.15
2024-01-06T12:34:53.030Z,55.77
2024-01-06T12:35:52.668Z,55.29
2024-01-06T12:36:52.811Z,55.33
2024-01-06T12:37:52.716Z,55.09
2024-01-06T12:38:52.771Z,55.80
2024-01-06T12:39:52.869Z,55.39
2024-01-06T12:40:52.791Z,55.45
2024-01-06T12:41:52.815Z,54.47
2024-01-06T12:42:52.890Z,53.23
2024-01-06T12:43:52.859Z,54.88
2024-01-06T12:44:52.891Z,56.08
2024-01-06T12:45:52.914Z,56.10
2024-01-06T12:46:52.936Z,55.39
2024-01-06T12:47:53.072Z,56.16
2024-01-06T12:48:53.154Z,54.18
2024-01-06T12:49:53.072Z,56.14
2024-01-06T12:50:53.039Z,56.33
2024-01-06T12:51:53.155Z,54.88
2024-01-06T12:52:53.079Z,54.22
2024-01-06T12:53:53.097Z,51.76
2024-01-06T12:54:53.157Z,55.70
2024-01-06T12:55:53.127Z,54.02
2024-01-06T12:56:53.176Z,54.33
2024-01-06T12:57:53.308Z,54.11
2024-01-06T12:58:53.295Z,54.08
2024-01-06T12:59:53.368Z,55.66
2024-01-06T13:00:53.475Z,55.72
2024-01-06T13:01:53.515Z,53.50
2024-01-06T13:02:53.415Z,55.02
2024-01-06T13:03:53.509Z,54.96
2024-01-06T13:04:53.465Z,55.68
2024-01-06T13:05:53.556Z,54.61
2024-01-06T13:06:53.552Z,54.39
2024-01-06T13:07:53.492Z,55.31
2024-01-06T13:08:53.525Z,56.04
2024-01-06T13:09:53.573Z,54.80
2024-01-06T13:10:53.582Z,54.86
2024-01-06T13:11:53.554Z,54.98
2024-01-06T13:12:54.216Z,55.13
2024-01-06T13:13:53.604Z,55.36